createdAt,value
2019-04-14T04:00:55.370Z,27.30
2019-04-14T04:01:56.440Z,22.50
2019-04-14T04:02:55.495Z,21.00
2019-04-14T04:03:56.442Z,24.10
2019-04-14T04:04:55.696Z,24.30
2019-04-14T04:05:56.418Z,23.40
2019-04-14T04:06:57.167Z,24.60
2019-04-14T04:07:56.201Z,26.40
2019-04-14T04:08:57.374Z,26.50
2019-04-14T04:09:56.535Z,30.10
2019-04-14T04:10:57.579Z,28.70
2019-04-14T04:11:56.869Z,25.70
2019-04-14T04:12:57.633Z,26.30
2019-04-14T04:13:58.434Z,25.40
2019-04-14T04:14:57.517Z,26.40
2019-04-14T04:15:58.396Z,25.40
2019-04-14T04:16:57.701Z,25.00
2019-04-14T04:17:58.066Z,24.90
2019-04-14T04:19:05.571Z,20.50
2019-04-14T04:19:58.205Z,23.60
2019-04-14T04:20:58.830Z,21.30
2019-04-14T04:21:59.515Z,20.70
2019-04-14T04:22:58.774Z,20.90
2019-04-14T04:23:59.656Z,21.10
2019-04-14T04:24:59.048Z,23.60
2019-04-14T04:25:59.489Z,21.10
2019-04-14T04:27:00.321Z,20.00
2019-04-14T04:27:59.541Z,21.30
2019-04-14T04:29:00.493Z,20.10
2019-04-14T04:29:59.876Z,23.00
2019-04-14T04:31:00.237Z,21.30
2019-04-14T04:32:01.329Z,22.40
2019-04-14T04:33:00.376Z,23.40
2019-04-14T04:34:01.072Z,21.80
2019-04-14T04:35:00.711Z,21.00
2019-04-14T04:36:01.078Z,24.70
2019-04-14T04:37:01.822Z,22.10
2019-04-14T04:38:01.213Z,20.80
2019-04-14T04:39:01.788Z,21.80
2019-04-14T04:40:02.893Z,19.90
2019-04-14T04:41:01.709Z,23.20
2019-04-14T04:42:02.649Z,20.00
2019-04-14T04:43:02.043Z,21.80
2019-04-14T04:44:02.877Z,21.00
2019-04-14T04:45:02.376Z,22.50
2019-04-14T04:46:02.777Z,23.10
2019-04-14T04:47:03.513Z,22.20
2019-04-14T04:48:02.871Z,24.10
2019-04-14T04:49:09.530Z,18.50
2019-04-14T04:50:04.117Z,20.60
2019-04-14T04:51:03.373Z,18.20
2019-04-14T04:52:04.087Z,18.70
2019-04-14T04:53:04.735Z,18.40
2019-04-14T04:54:03.959Z,17.40
2019-04-14T04:55:04.604Z,16.40
2019-04-14T04:56:04.203Z,19.30
2019-04-14T04:57:04.636Z,17.20
2019-04-14T04:58:05.561Z,17.80
2019-04-14T04:59:05.443Z,19.70
2019-04-14T05:00:04.925Z,21.60
2019-04-14T05:01:05.675Z,20.70
2019-04-14T05:02:05.202Z,19.90
2019-04-14T05:03:05.729Z,20.70
2019-04-14T05:04:06.777Z,20.00
2019-04-14T05:05:05.702Z,20.50
2019-04-14T05:06:06.754Z,19.60
2019-04-14T05:07:06.034Z,18.80
2019-04-14T05:08:06.534Z,20.50
2019-04-14T05:09:06.362Z,18.80
2019-04-14T05:10:06.682Z,18.60
2019-04-14T05:11:07.565Z,17.00
2019-04-14T05:12:06.862Z,21.80
2019-04-14T05:13:07.317Z,18.70
2019-04-14T05:14:07.197Z,20.60
2019-04-14T05:15:07.365Z,21.10
2019-04-14T05:16:08.499Z,18.60
2019-04-14T05:17:07.911Z,17.90
2019-04-14T05:18:09.060Z,18.70
2019-04-14T05:19:18.535Z,17.80
2019-04-14T05:20:09.423Z,18.70
2019-04-14T05:21:08.367Z,19.40
2019-04-14T05:22:09.252Z,21.40
2019-04-14T05:23:08.700Z,18.40
2019-04-14T05:24:09.274Z,20.40
2019-04-14T05:25:10.027Z,19.10
2019-04-14T05:26:09.302Z,19.20
2019-04-14T05:27:09.998Z,20.00
2019-04-14T05:28:09.529Z,18.90
2019-04-14T05:29:10.016Z,21.00
2019-04-14T05:30:11.055Z,19.70
2019-04-14T05:31:10.026Z,20.00
2019-04-14T05:32:10.857Z,21.20
2019-04-14T05:33:10.365Z,23.00
2019-04-14T05:34:10.761Z,20.50
2019-04-14T05:35:11.921Z,21.30
2019-04-14T05:36:10.861Z,23.00
2019-04-14T05:37:11.723Z,21.50
2019-04-14T05:38:11.194Z,23.40
2019-04-14T05:39:11.420Z,19.80
2019-04-14T05:40:12.431Z,21.40
2019-04-14T05:41:11.694Z,18.30
2019-04-14T05:42:17.987Z,19.60
2019-04-14T05:43:12.026Z,18.30
2019-04-14T05:44:12.198Z,18.30
2019-04-14T05:45:13.288Z,18.40
2019-04-14T05:46:12.524Z,17.50
2019-04-14T05:47:13.192Z,19.30
2019-04-14T05:48:13.857Z,20.40
2019-04-14T05:49:24.516Z,22.40
2019-04-14T05:50:13.709Z,20.70
2019-04-14T05:51:13.361Z,20.40
2019-04-14T05:52:14.150Z,19.60
2019-04-14T05:53:13.690Z,20.40
2019-04-14T05:54:14.213Z,23.40
2019-04-14T05:55:14.022Z,19.70
2019-04-14T05:56:14.421Z,20.60
2019-04-14T05:57:15.437Z,20.10
2019-04-14T05:58:14.521Z,20.70
2019-04-14T05:59:15.639Z,22.00
2019-04-14T06:00:14.853Z,18.60
2019-04-14T06:01:16.066Z,20.60
2019-04-14T06:02:15.893Z,20.20
2019-04-14T06:03:16.641Z,17.90
2019-04-14T06:04:15.738Z,20.80
2019-04-14T06:05:16.616Z,18.80
2019-04-14T06:06:15.851Z,20.50
2019-04-14T06:07:16.017Z,20.50
2019-04-14T06:08:16.183Z,16.00
2019-04-14T06:09:16.355Z,21.00
2019-04-14T06:10:16.520Z,20.20
2019-04-14T06:11:16.688Z,19.80
2019-04-14T06:12:16.849Z,20.20
2019-04-14T06:13:17.019Z,19.40
2019-04-14T06:14:17.190Z,20.60
2019-04-14T06:15:17.389Z,20.20
2019-04-14T06:16:17.520Z,20.50
2019-04-14T06:17:17.691Z,20.80
2019-04-14T06:18:17.847Z,20.40
2019-04-14T06:19:18.012Z,20.50
2019-04-14T06:20:18.181Z,22.60
2019-04-14T06:21:18.347Z,22.70
2019-04-14T06:22:18.514Z,20.90
2019-04-14T06:23:18.683Z,21.80
2019-04-14T06:24:18.848Z,22.70
2019-04-14T06:25:19.037Z,22.10
2019-04-14T06:26:19.191Z,21.70
2019-04-14T06:27:19.346Z,23.20
2019-04-14T06:28:19.515Z,22.10
2019-04-14T06:29:19.682Z,23.00
2019-04-14T06:30:19.846Z,23.40
2019-04-14T06:31:20.014Z,22.90
2019-04-14T06:32:20.179Z,21.60
2019-04-14T06:33:20.347Z,23.80
2019-04-14T06:34:20.524Z,23.80
2019-04-14T06:35:20.686Z,23.80
2019-04-14T06:36:20.854Z,22.80
2019-04-14T06:37:21.024Z,23.60
2019-04-14T06:38:21.187Z,21.50
2019-04-14T06:39:21.354Z,21.00
2019-04-14T06:40:21.522Z,21.50
2019-04-14T06:41:21.688Z,22.70
2019-04-14T06:42:21.859Z,19.90
2019-04-14T06:43:22.023Z,22.40
2019-04-14T06:44:22.191Z,23.30
2019-04-14T06:45:22.357Z,21.00
2019-04-14T06:46:22.525Z,22.70
2019-04-14T06:47:22.693Z,22.20
2019-04-14T06:48:22.860Z,22.40
2019-04-14T06:49:23.028Z,22.70
2019-04-14T06:50:23.199Z,21.80
2019-04-14T06:51:23.363Z,21.20
2019-04-14T06:52:23.529Z,21.30
2019-04-14T06:53:23.697Z,20.80
2019-04-14T06:54:23.865Z,22.90
2019-04-14T06:55:24.031Z,21.40
2019-04-14T06:56:24.200Z,19.10
2019-04-14T06:57:24.369Z,20.30
2019-04-14T06:58:24.539Z,20.60
2019-04-14T06:59:24.710Z,18.10
2019-04-14T07:00:24.873Z,21.40
2019-04-14T07:01:25.041Z,17.70
2019-04-14T07:02:25.215Z,21.60
2019-04-14T07:03:25.381Z,20.70
2019-04-14T07:04:25.550Z,20.60
2019-04-14T07:05:25.719Z,18.20
2019-04-14T07:06:25.890Z,19.70
2019-04-14T07:07:26.055Z,18.40
2019-04-14T07:08:26.222Z,19.00
2019-04-14T07:09:26.391Z,18.20
2019-04-14T07:10:26.560Z,18.20
2019-04-14T07:11:26.731Z,18.40
2019-04-14T07:12:26.897Z,17.30
2019-04-14T07:13:27.063Z,17.20
2019-04-14T07:14:31.662Z,20.50
2019-04-14T07:15:27.399Z,18.80
2019-04-14T07:16:27.568Z,19.30
2019-04-14T07:17:27.739Z,20.40
2019-04-14T07:18:27.911Z,19.10
2019-04-14T07:19:28.074Z,20.00
2019-04-14T07:20:28.243Z,18.00
2019-04-14T07:21:28.412Z,19.30
2019-04-14T07:22:28.645Z,20.00
2019-04-14T07:23:28.750Z,17.80
2019-04-14T07:24:28.921Z,17.90
2019-04-14T07:25:29.092Z,19.60
2019-04-14T07:26:29.260Z,19.20
2019-04-14T07:27:29.437Z,15.80
2019-04-14T07:28:29.596Z,16.20
2019-04-14T07:29:29.764Z,16.20
2019-04-14T07:30:29.935Z,16.20
2019-04-14T07:31:30.103Z,17.20
2019-04-14T07:32:30.289Z,17.70
2019-04-14T07:33:30.440Z,17.80
2019-04-14T07:34:30.611Z,15.90
2019-04-14T07:35:30.779Z,18.50
2019-04-14T07:36:30.948Z,17.80
2019-04-14T07:37:31.118Z,17.80
2019-04-14T07:38:31.304Z,16.40
2019-04-14T07:39:31.456Z,17.60
2019-04-14T07:40:31.623Z,16.60
2019-04-14T07:41:31.792Z,16.80
2019-04-14T07:42:31.964Z,18.20
2019-04-14T07:43:32.126Z,16.30
2019-04-14T07:44:32.295Z,17.10
2019-04-14T07:45:32.502Z,18.10
2019-04-14T07:46:32.634Z,14.80
2019-04-14T07:47:32.800Z,18.50
2019-04-14T07:48:32.968Z,16.10
2019-04-14T07:49:33.139Z,14.10
2019-04-14T07:50:33.312Z,14.60
2019-04-14T07:51:33.480Z,14.00
2019-04-14T07:52:33.649Z,15.80
2019-04-14T07:53:33.819Z,17.80
2019-04-14T07:54:33.989Z,16.80
2019-04-14T07:55:34.159Z,18.40
2019-04-14T07:56:34.330Z,17.80
2019-04-14T07:57:34.501Z,16.40
2019-04-14T07:58:34.669Z,15.60
2019-04-14T07:59:34.838Z,15.00
2019-04-14T08:00:35.018Z,16.30
2019-04-14T08:01:35.177Z,14.50
2019-04-14T08:02:35.348Z,17.00
2019-04-14T08:03:35.518Z,18.10
2019-04-14T08:04:35.688Z,14.70
2019-04-14T08:05:35.867Z,16.90
2019-04-14T08:06:38.306Z,16.00
2019-04-14T08:07:36.199Z,16.90
2019-04-14T08:08:36.430Z,15.60
2019-04-14T08:09:36.545Z,17.10
2019-04-14T08:10:36.714Z,15.70
2019-04-14T08:11:36.890Z,16.60
2019-04-14T08:12:37.054Z,16.60
2019-04-14T08:13:37.221Z,16.60
2019-04-14T08:14:37.402Z,15.20
2019-04-14T08:15:37.561Z,15.40
2019-04-14T08:16:37.729Z,15.50
2019-04-14T08:17:37.899Z,16.70
2019-04-14T08:18:38.069Z,15.90
2019-04-14T08:19:38.237Z,19.10
2019-04-14T08:20:38.410Z,14.50
2019-04-14T08:21:38.584Z,16.70
2019-04-14T08:22:38.756Z,15.80
2019-04-14T08:23:38.926Z,16.10
2019-04-14T08:24:39.101Z,16.80
2019-04-14T08:25:39.268Z,14.80
2019-04-14T08:26:39.440Z,12.60
2019-04-14T08:27:39.610Z,14.40
2019-04-14T08:28:39.781Z,15.90
2019-04-14T08:29:39.952Z,20.80
2019-04-14T08:30:40.120Z,14.70
2019-04-14T08:31:40.293Z,20.00
2019-04-14T08:32:40.470Z,15.40
2019-04-14T08:33:40.635Z,14.20
2019-04-14T08:34:40.807Z,16.50
2019-04-14T08:35:40.977Z,14.10
2019-04-14T08:36:41.149Z,16.50
2019-04-14T08:37:41.320Z,14.90
2019-04-14T08:38:41.491Z,14.50
2019-04-14T08:39:41.663Z,14.80
2019-04-14T08:40:41.834Z,14.30
2019-04-14T08:41:42.002Z,16.60
2019-04-14T08:42:42.173Z,16.20
2019-04-14T08:43:42.344Z,16.20
2019-04-14T08:44:42.522Z,14.50
2019-04-14T08:45:42.687Z,17.70
2019-04-14T08:46:42.861Z,15.50
2019-04-14T08:47:43.029Z,15.20
2019-04-14T08:48:43.203Z,16.80
2019-04-14T08:49:43.372Z,14.00
2019-04-14T08:50:43.545Z,16.50
2019-04-14T08:51:43.717Z,15.20
2019-04-14T08:52:43.890Z,14.90
2019-04-14T08:53:44.062Z,17.00
2019-04-14T08:54:44.234Z,15.80
2019-04-14T08:55:44.408Z,14.10
2019-04-14T08:56:44.580Z,15.10
2019-04-14T08:57:44.753Z,16.20
2019-04-14T08:58:44.924Z,17.40
2019-04-14T08:59:45.097Z,16.10
2019-04-14T09:00:45.272Z,15.80
2019-04-14T09:01:45.442Z,15.90
2019-04-14T09:02:45.616Z,16.40
2019-04-14T09:03:45.790Z,15.10
2019-04-14T09:04:45.959Z,15.60
2019-04-14T09:05:46.132Z,16.60
2019-04-14T09:06:46.305Z,16.60
2019-04-14T09:07:46.476Z,16.80
2019-04-14T09:08:46.658Z,16.70
2019-04-14T09:09:46.821Z,18.90
2019-04-14T09:10:46.994Z,16.90
2019-04-14T09:11:47.166Z,16.30
2019-04-14T09:12:47.342Z,16.40
2019-04-14T09:13:47.509Z,16.70
2019-04-14T09:14:56.916Z,17.30
2019-04-14T09:15:47.855Z,16.50
2019-04-14T09:16:48.031Z,16.00
2019-04-14T09:17:48.206Z,16.50
2019-04-14T09:18:48.372Z,15.90
2019-04-14T09:19:48.546Z,16.60
2019-04-14T09:20:52.560Z,18.00
2019-04-14T09:21:48.889Z,16.30
2019-04-14T09:22:49.062Z,15.50
2019-04-14T09:23:49.234Z,17.50
2019-04-14T09:24:49.404Z,20.90
2019-04-14T09:25:49.583Z,19.70
2019-04-14T09:26:49.756Z,21.70
2019-04-14T09:27:49.925Z,18.20
2019-04-14T09:28:50.098Z,17.60
2019-04-14T09:29:52.198Z,15.40
2019-04-14T09:30:50.444Z,16.70
2019-04-14T09:31:50.617Z,17.20
2019-04-14T09:32:50.789Z,17.10
2019-04-14T09:33:50.963Z,17.20
2019-04-14T09:34:51.135Z,17.40
2019-04-14T09:35:51.306Z,15.80
2019-04-14T09:36:51.477Z,17.70
2019-04-14T09:37:51.648Z,17.20
2019-04-14T09:38:51.821Z,17.80
2019-04-14T09:39:51.991Z,17.20
2019-04-14T09:40:52.163Z,17.00
2019-04-14T09:41:52.335Z,16.60
2019-04-14T09:42:52.509Z,16.20
2019-04-14T09:43:52.679Z,17.70
2019-04-14T09:44:52.851Z,18.50
2019-04-14T09:45:53.024Z,17.00
2019-04-14T09:46:53.196Z,18.40
2019-04-14T09:47:53.369Z,17.90
2019-04-14T09:48:53.550Z,16.60
2019-04-14T09:49:53.714Z,15.30
2019-04-14T09:51:04.113Z,16.70
2019-04-14T09:51:54.060Z,18.80
2019-04-14T09:52:54.235Z,16.60
2019-04-14T09:53:54.404Z,18.20
2019-04-14T09:54:54.578Z,16.40
2019-04-14T09:55:54.785Z,15.70
2019-04-14T09:56:54.921Z,15.60
2019-04-14T09:57:55.093Z,16.50
2019-04-14T09:58:55.267Z,14.10
2019-04-14T09:59:55.441Z,15.40
2019-04-14T10:00:55.612Z,16.80
2019-04-14T10:01:55.788Z,16.20
2019-04-14T10:02:55.958Z,15.90
2019-04-14T10:03:56.128Z,15.80
2019-04-14T10:04:56.300Z,15.60
2019-04-14T10:05:56.471Z,16.30
2019-04-14T10:06:56.646Z,15.50
2019-04-14T10:07:56.841Z,15.20
2019-04-14T10:08:56.989Z,15.90
2019-04-14T10:09:57.164Z,15.80
2019-04-14T10:10:57.336Z,15.90
2019-04-14T10:11:57.518Z,15.50
2019-04-14T10:12:57.685Z,14.80
2019-04-14T10:13:57.855Z,15.90
2019-04-14T10:14:58.029Z,15.90
2019-04-14T10:15:58.201Z,14.60
2019-04-14T10:17:01.203Z,15.90
2019-04-14T10:17:58.547Z,16.70
2019-04-14T10:18:58.719Z,14.80
2019-04-14T10:19:58.892Z,15.20
2019-04-14T10:20:59.066Z,14.70
2019-04-14T10:21:59.238Z,14.50
2019-04-14T10:22:59.409Z,14.40
2019-04-14T10:23:59.582Z,15.40
2019-04-14T10:24:59.755Z,15.00
2019-04-14T10:25:59.927Z,15.70
2019-04-14T10:27:00.104Z,15.60
2019-04-14T10:28:00.273Z,14.40
2019-04-14T10:29:00.447Z,17.80
2019-04-14T10:30:00.628Z,15.60
2019-04-14T10:31:00.796Z,16.20
2019-04-14T10:32:00.970Z,14.40
2019-04-14T10:33:01.141Z,16.80
2019-04-14T10:34:01.319Z,14.60
2019-04-14T10:35:01.490Z,13.60
2019-04-14T10:36:01.664Z,15.90
2019-04-14T10:37:01.836Z,14.50
2019-04-14T10:38:02.009Z,14.70
2019-04-14T10:39:02.184Z,14.40
2019-04-14T10:40:02.357Z,14.40
2019-04-14T10:41:02.530Z,14.70
2019-04-14T10:42:02.700Z,14.80
2019-04-14T10:43:02.874Z,15.00
2019-04-14T10:44:03.044Z,14.60
2019-04-14T10:45:03.217Z,13.90
2019-04-14T10:46:03.393Z,15.30
2019-04-14T10:47:03.559Z,14.90
2019-04-14T10:48:03.732Z,13.20
2019-04-14T10:49:03.912Z,14.80
2019-04-14T10:50:04.081Z,15.00
2019-04-14T10:51:04.261Z,12.90
2019-04-14T10:52:04.447Z,14.70
2019-04-14T10:53:04.619Z,13.30
2019-04-14T10:54:04.791Z,12.30
2019-04-14T10:55:04.963Z,12.00
2019-04-14T10:56:05.134Z,13.40
2019-04-14T10:57:05.312Z,14.90
2019-04-14T10:58:05.480Z,13.40
2019-04-14T10:59:05.656Z,13.80
2019-04-14T11:00:05.819Z,11.80
2019-04-14T11:01:05.988Z,13.70
2019-04-14T11:02:06.162Z,13.90
2019-04-14T11:03:06.335Z,14.60
2019-04-14T11:04:08.027Z,12.50
2019-04-14T11:05:06.678Z,14.60
2019-04-14T11:06:06.850Z,14.80
2019-04-14T11:07:07.021Z,13.40
2019-04-14T11:08:07.192Z,15.60
2019-04-14T11:09:07.362Z,14.10
2019-04-14T11:10:07.534Z,15.30
2019-04-14T11:11:07.704Z,14.30
2019-04-14T11:12:07.874Z,16.70
2019-04-14T11:13:08.050Z,14.20
2019-04-14T11:14:08.223Z,13.60
2019-04-14T11:15:08.392Z,13.80
2019-04-14T11:16:08.564Z,13.30
2019-04-14T11:17:08.736Z,14.90
2019-04-14T11:18:08.906Z,18.70
2019-04-14T11:19:09.075Z,14.30
2019-04-14T11:20:09.253Z,14.40
2019-04-14T11:21:09.417Z,16.70
2019-04-14T11:22:09.586Z,14.90
2019-04-14T11:23:09.758Z,16.70
2019-04-14T11:24:09.933Z,14.00
2019-04-14T11:25:10.104Z,12.50
2019-04-14T11:26:10.276Z,12.50
2019-04-14T11:27:10.450Z,11.30
2019-04-14T11:28:10.618Z,16.10
2019-04-14T11:29:10.788Z,12.40
2019-04-14T11:30:10.959Z,11.70
2019-04-14T11:31:11.133Z,14.30
2019-04-14T11:32:11.303Z,15.70
2019-04-14T11:33:11.474Z,16.60
2019-04-14T11:34:11.644Z,14.80
2019-04-14T11:35:11.894Z,12.40
2019-04-14T11:36:12.001Z,10.90
2019-04-14T11:37:12.167Z,9.10
2019-04-14T11:38:12.331Z,11.00
2019-04-14T11:39:12.514Z,10.10
2019-04-14T11:40:12.671Z,11.00
2019-04-14T11:41:12.849Z,9.10
2019-04-14T11:42:13.011Z,10.20
2019-04-14T11:43:13.182Z,9.70
2019-04-14T11:44:13.357Z,9.50
2019-04-14T11:45:13.531Z,9.50
2019-04-14T11:46:13.694Z,8.90
2019-04-14T11:47:16.117Z,10.20
2019-04-14T11:48:14.038Z,11.10
2019-04-14T11:49:14.208Z,10.50
2019-04-14T11:50:14.394Z,9.80
2019-04-14T11:51:14.546Z,11.10
2019-04-14T11:52:14.716Z,9.80
2019-04-14T11:53:14.886Z,10.00
2019-04-14T11:54:15.060Z,15.80
2019-04-14T11:55:15.228Z,18.10
2019-04-14T11:56:15.412Z,11.30
2019-04-14T11:57:15.571Z,10.60
2019-04-14T11:58:15.743Z,10.30
2019-04-14T11:59:15.912Z,11.30
2019-04-14T12:00:16.140Z,11.80
2019-04-14T12:01:16.253Z,11.00
2019-04-14T12:02:16.430Z,11.50
2019-04-14T12:03:16.591Z,12.20
2019-04-14T12:04:16.767Z,12.30
2019-04-14T12:05:16.950Z,10.80
2019-04-14T12:06:17.103Z,13.70
2019-04-14T12:07:17.275Z,14.60
2019-04-14T12:08:17.444Z,12.10
2019-04-14T12:09:17.614Z,13.10
2019-04-14T12:10:17.784Z,11.40
2019-04-14T12:11:17.957Z,12.10
2019-04-14T12:12:18.145Z,14.20
2019-04-14T12:13:18.316Z,12.20
2019-04-14T12:14:18.486Z,14.60
2019-04-14T12:15:18.697Z,13.20
2019-04-14T12:16:18.828Z,13.40
2019-04-14T12:17:19.000Z,14.50
2019-04-14T12:18:19.170Z,12.60
2019-04-14T12:19:19.340Z,13.10
2019-04-14T12:20:19.514Z,12.70
2019-04-14T12:21:19.688Z,13.70
2019-04-14T12:22:19.855Z,12.10
2019-04-14T12:23:20.025Z,15.10
2019-04-14T12:24:20.194Z,14.80
2019-04-14T12:25:20.365Z,12.60
2019-04-14T12:26:20.534Z,13.30
2019-04-14T12:27:20.713Z,13.50
2019-04-14T12:28:21.914Z,13.50
2019-04-14T12:29:21.445Z,13.70
2019-04-14T12:30:22.304Z,12.40
2019-04-14T12:31:21.870Z,15.20
2019-04-14T12:32:21.565Z,16.40
2019-04-14T12:33:21.735Z,13.50
2019-04-14T12:34:21.906Z,15.50
2019-04-14T12:35:22.075Z,13.10
2019-04-14T12:36:22.248Z,12.90
2019-04-14T12:37:22.407Z,15.70
2019-04-14T12:38:22.587Z,14.60
2019-04-14T12:39:22.782Z,14.60
2019-04-14T12:40:22.926Z,14.00
2019-04-14T12:41:24.166Z,13.50
2019-04-14T12:42:23.268Z,15.10
2019-04-14T12:43:23.440Z,15.20
2019-04-14T12:44:23.606Z,14.90
2019-04-14T12:45:23.781Z,13.80
2019-04-14T12:46:23.953Z,15.30
2019-04-14T12:47:24.122Z,16.60
2019-04-14T12:48:24.295Z,14.40
2019-04-14T12:49:24.463Z,15.40
2019-04-14T12:50:24.633Z,14.90
2019-04-14T12:51:24.804Z,15.80
2019-04-14T12:52:24.975Z,15.10
2019-04-14T12:53:25.145Z,14.50
2019-04-14T12:54:25.315Z,13.90
2019-04-14T12:55:25.488Z,15.90
2019-04-14T12:56:25.657Z,14.80
2019-04-14T12:57:25.825Z,16.00
2019-04-14T12:58:25.996Z,14.40
2019-04-14T12:59:26.172Z,15.60
2019-04-14T13:00:26.338Z,14.90
2019-04-14T13:01:26.511Z,14.90
2019-04-14T13:02:26.678Z,16.50
2019-04-14T13:03:26.847Z,16.30
2019-04-14T13:04:27.019Z,20.10
2019-04-14T13:05:27.192Z,19.50
2019-04-14T13:06:27.361Z,14.40
2019-04-14T13:07:27.526Z,14.90
2019-04-14T13:08:27.705Z,17.40
2019-04-14T13:09:27.876Z,17.00
2019-04-14T13:10:28.045Z,14.40
2019-04-14T13:11:28.214Z,16.10
2019-04-14T13:12:28.385Z,15.10
2019-04-14T13:13:28.553Z,15.60
2019-04-14T13:14:28.724Z,16.70
2019-04-14T13:15:28.894Z,15.20
2019-04-14T13:16:29.066Z,15.30
2019-04-14T13:17:29.235Z,16.40
2019-04-14T13:18:29.405Z,14.80
2019-04-14T13:19:29.574Z,16.40
2019-04-14T13:20:29.745Z,15.20
2019-04-14T13:21:29.927Z,15.50
2019-04-14T13:22:34.264Z,15.20
2019-04-14T13:23:30.259Z,15.70
2019-04-14T13:24:30.429Z,15.80
2019-04-14T13:25:30.600Z,15.50
2019-04-14T13:26:30.768Z,16.90
2019-04-14T13:27:30.939Z,17.80
2019-04-14T13:28:31.112Z,14.50
2019-04-14T13:29:31.275Z,15.10
2019-04-14T13:30:31.447Z,13.80
2019-04-14T13:31:31.617Z,13.50
2019-04-14T13:32:36.230Z,13.10
2019-04-14T13:33:31.990Z,13.80
2019-04-14T13:34:32.125Z,16.40
2019-04-14T13:35:32.295Z,13.10
2019-04-14T13:36:32.465Z,11.70
2019-04-14T13:37:32.637Z,13.70
2019-04-14T13:38:32.808Z,12.60
2019-04-14T13:39:32.978Z,13.30
2019-04-14T13:40:33.149Z,14.90
2019-04-14T13:41:33.319Z,13.00
2019-04-14T13:42:33.492Z,13.20
2019-04-14T13:43:33.659Z,12.90
2019-04-14T13:44:33.831Z,13.20
2019-04-14T13:45:33.998Z,12.10
2019-04-14T13:46:34.181Z,13.60
2019-04-14T13:47:34.347Z,12.60
2019-04-14T13:48:34.516Z,11.70
2019-04-14T13:49:34.683Z,12.00
2019-04-14T13:50:34.854Z,11.80
2019-04-14T13:51:35.015Z,11.90
2019-04-14T13:52:46.156Z,12.20
2019-04-14T13:53:35.378Z,11.40
2019-04-14T13:54:35.560Z,11.10
2019-04-14T13:55:35.725Z,11.40
2019-04-14T13:56:35.898Z,11.40
2019-04-14T13:57:36.070Z,10.20
2019-04-14T13:58:40.367Z,10.70
2019-04-14T13:59:36.413Z,11.10
2019-04-14T14:00:36.583Z,9.40
2019-04-14T14:01:36.756Z,10.00
2019-04-14T14:02:36.925Z,9.60
2019-04-14T14:03:37.096Z,10.30
2019-04-14T14:04:37.267Z,8.90
2019-04-14T14:05:37.438Z,8.90
2019-04-14T14:06:37.607Z,9.50
2019-04-14T14:07:37.779Z,9.30
2019-04-14T14:08:37.948Z,8.60
2019-04-14T14:09:38.118Z,8.20
2019-04-14T14:10:38.278Z,8.20
2019-04-14T14:11:38.453Z,7.30
2019-04-14T14:12:38.623Z,7.10
2019-04-14T14:13:38.793Z,7.70
2019-04-14T14:14:38.963Z,7.20
2019-04-14T14:15:39.133Z,7.50
2019-04-14T14:16:39.305Z,7.60
2019-04-14T14:17:39.935Z,7.50
2019-04-14T14:18:39.646Z,9.70
2019-04-14T14:19:39.817Z,8.90
2019-04-14T14:20:39.987Z,7.90
2019-04-14T14:21:40.160Z,8.70
2019-04-14T14:22:40.329Z,8.30
2019-04-14T14:23:40.499Z,8.50
2019-04-14T14:24:40.678Z,7.40
2019-04-14T14:25:40.842Z,6.70
2019-04-14T14:26:41.014Z,7.10
2019-04-14T14:27:41.182Z,7.10
2019-04-14T14:28:41.353Z,8.20
2019-04-14T14:29:41.524Z,7.40
2019-04-14T14:30:41.697Z,6.30
2019-04-14T14:31:41.867Z,6.10
2019-04-14T14:32:42.037Z,6.10
2019-04-14T14:33:44.022Z,5.90
2019-04-14T14:34:42.377Z,6.40
2019-04-14T14:35:42.549Z,6.10
2019-04-14T14:36:42.719Z,6.00
2019-04-14T14:37:42.890Z,5.70
2019-04-14T14:38:43.064Z,5.80
2019-04-14T14:39:43.239Z,6.00
2019-04-14T14:40:43.476Z,4.70
2019-04-14T14:41:43.584Z,5.60
2019-04-14T14:42:43.748Z,4.80
2019-04-14T14:43:43.920Z,4.50
2019-04-14T14:44:44.091Z,5.20
2019-04-14T14:45:44.262Z,5.30
2019-04-14T14:46:44.433Z,4.30
2019-04-14T14:47:44.605Z,4.80
2019-04-14T14:48:44.775Z,4.80
2019-04-14T14:49:44.945Z,4.70
2019-04-14T14:50:45.118Z,5.20
2019-04-14T14:51:45.287Z,5.00
2019-04-14T14:52:45.455Z,4.60
2019-04-14T14:53:45.626Z,5.10
2019-04-14T14:54:45.798Z,4.80
2019-04-14T14:55:45.966Z,4.60
2019-04-14T14:56:46.137Z,5.30
2019-04-14T14:57:46.308Z,5.10
2019-04-14T14:58:46.479Z,4.90
2019-04-14T14:59:46.653Z,4.80
2019-04-14T15:00:46.820Z,5.00
2019-04-14T15:01:46.989Z,4.80
2019-04-14T15:02:47.165Z,5.00
2019-04-14T15:03:47.340Z,5.00
2019-04-14T15:04:47.507Z,4.80
2019-04-14T15:05:47.676Z,5.30
2019-04-14T15:06:47.847Z,5.10
2019-04-14T15:07:48.015Z,5.00
2019-04-14T15:08:48.187Z,4.70
2019-04-14T15:09:48.354Z,5.00
2019-04-14T15:10:48.523Z,4.70
2019-04-14T15:11:48.693Z,4.60
2019-04-14T15:12:48.868Z,3.90
2019-04-14T15:13:49.033Z,4.50
2019-04-14T15:14:49.204Z,4.00
2019-04-14T15:15:49.372Z,4.30
2019-04-14T15:16:49.541Z,4.10
2019-04-14T15:17:49.712Z,4.70
2019-04-14T15:18:49.883Z,4.50
2019-04-14T15:19:50.057Z,4.40
2019-04-14T15:20:50.227Z,3.90
2019-04-14T15:21:50.400Z,4.80
2019-04-14T15:22:52.371Z,4.00
2019-04-14T15:23:50.738Z,4.70
2019-04-14T15:24:50.906Z,4.20
2019-04-14T15:25:51.075Z,4.30
2019-04-14T15:26:51.248Z,3.90
2019-04-14T15:27:51.417Z,4.90
2019-04-14T15:28:51.592Z,4.60
2019-04-14T15:29:51.759Z,4.10
2019-04-14T15:30:51.928Z,4.10
2019-04-14T15:31:52.097Z,4.40
2019-04-14T15:32:52.267Z,4.20
2019-04-14T15:33:52.439Z,5.30
2019-04-14T15:34:52.609Z,4.20
2019-04-14T15:35:52.778Z,4.00
2019-04-14T15:36:52.952Z,4.10
2019-04-14T15:37:53.121Z,3.80
2019-04-14T15:38:53.288Z,3.60
2019-04-14T15:39:53.459Z,3.70
2019-04-14T15:40:53.630Z,4.00
2019-04-14T15:41:53.798Z,4.80
2019-04-14T15:42:53.969Z,3.30
2019-04-14T15:43:54.135Z,3.50
2019-04-14T15:44:54.305Z,4.10
2019-04-14T15:45:54.476Z,3.50
2019-04-14T15:46:54.645Z,3.70
2019-04-14T15:47:54.817Z,3.60
2019-04-14T15:48:54.984Z,3.70
2019-04-14T15:49:55.154Z,3.80
2019-04-14T15:50:55.324Z,4.10
2019-04-14T15:51:55.493Z,3.90
2019-04-14T15:52:55.663Z,3.50
2019-04-14T15:53:55.836Z,3.60
2019-04-14T15:54:56.003Z,3.70
2019-04-14T15:55:56.173Z,3.60
2019-04-14T15:56:56.341Z,3.70
2019-04-14T15:57:56.521Z,3.40
2019-04-14T15:58:56.681Z,4.00
2019-04-14T15:59:56.853Z,3.60
2019-04-14T16:00:57.024Z,3.80
2019-04-14T16:01:57.194Z,3.60
2019-04-14T16:02:57.370Z,3.70
2019-04-14T16:03:57.534Z,3.60
2019-04-14T16:04:57.707Z,3.90
2019-04-14T16:05:57.878Z,4.00
2019-04-14T16:06:58.056Z,3.50
2019-04-14T16:07:58.222Z,3.70
2019-04-14T16:08:58.392Z,3.40
2019-04-14T16:09:58.563Z,4.10
2019-04-14T16:10:58.733Z,4.20
2019-04-14T16:11:58.907Z,3.70
2019-04-14T16:12:59.074Z,3.80
2019-04-14T16:13:59.244Z,4.20
2019-04-14T16:14:59.412Z,3.30
2019-04-14T16:15:59.583Z,3.90
2019-04-14T16:16:59.753Z,4.10
2019-04-14T16:17:59.923Z,4.40
2019-04-14T16:19:00.094Z,3.90
2019-04-14T16:20:00.265Z,3.50
2019-04-14T16:21:00.434Z,3.80
2019-04-14T16:22:00.606Z,4.00
2019-04-14T16:23:00.781Z,4.40
2019-04-14T16:24:00.943Z,4.00
2019-04-14T16:25:01.116Z,3.50
2019-04-14T16:26:01.287Z,3.80
2019-04-14T16:27:01.501Z,3.80
2019-04-14T16:28:01.670Z,3.80
2019-04-14T16:29:02.682Z,3.70
2019-04-14T16:30:02.014Z,5.30
2019-04-14T16:31:02.178Z,4.30
2019-04-14T16:32:02.347Z,4.10
2019-04-14T16:33:02.515Z,4.90
2019-04-14T16:34:02.693Z,4.80
2019-04-14T16:35:02.855Z,5.30
2019-04-14T16:36:03.042Z,5.80
2019-04-14T16:37:03.194Z,5.60
2019-04-14T16:38:03.365Z,6.80
2019-04-14T16:39:03.533Z,10.10
2019-04-14T16:40:03.701Z,6.50
2019-04-14T16:41:03.871Z,5.70
2019-04-14T16:42:04.040Z,5.80
2019-04-14T16:43:04.208Z,8.10
2019-04-14T16:44:04.378Z,5.50
2019-04-14T16:45:04.544Z,7.30
2019-04-14T16:46:04.714Z,7.10
2019-04-14T16:47:04.890Z,6.90
2019-04-14T16:48:05.054Z,5.90
2019-04-14T16:49:05.226Z,5.70
2019-04-14T16:50:05.396Z,5.70
2019-04-14T16:51:05.565Z,4.70
2019-04-14T16:52:05.735Z,5.40
2019-04-14T16:53:05.906Z,7.10
2019-04-14T16:54:06.078Z,5.90
2019-04-14T16:55:06.246Z,4.50
2019-04-14T16:56:06.428Z,4.70
2019-04-14T16:57:06.589Z,4.90
2019-04-14T16:58:06.761Z,6.40
2019-04-14T16:59:06.931Z,7.50
2019-04-14T17:00:07.100Z,6.60
2019-04-14T17:01:07.273Z,5.40